Time;durP1;ratioP1;P1;durP2;ratioP2;P2;SDS_P1;SDS_P2;PMS_P1;PMS_P2;Temp;Humidity;BMP_temperature;BMP_pressure;BME280_temperature;BME280_humidity;BME280_pressure;Samples;Min_cycle;Max_cycle;Signal;HPM_P1;HPM_P2
2023/01/13 00:00:46;;;;;;;;;;;11.30;99.90;;;;;;7350196;19;111498;-89
2023/01/13 00:03:13;;;;;;;;;;;11.30;99.90;;;;;;7347471;19;109526;-90
2023/01/13 00:05:41;;;;;;;;;;;11.30;99.90;;;;;;7344339;19;109530;-89
2023/01/13 00:08:08;;;;;;;;;;;11.30;99.90;;;;;;7348314;19;108823;-90
2023/01/13 00:10:34;;;;;;;;;;;11.30;99.90;;;;;;7345527;19;108657;-91
2023/01/13 00:13:03;;;;;;;;;;;11.30;99.90;;;;;;7347363;19;109228;-90
2023/01/13 00:15:30;;;;;;;;;;;11.30;99.90;;;;;;7344560;19;108602;-91
2023/01/13 00:17:57;;;;;;;;;;;11.30;99.90;;;;;;7346005;19;109051;-90
2023/01/13 00:20:24;;;;;;;;;;;11.30;99.90;;;;;;7344571;19;110154;-90
2023/01/13 00:22:51;;;;;;;;;;;11.20;99.90;;;;;;7350710;19;108339;-91
2023/01/13 00:25:17;;;;;;;;;;;11.20;99.90;;;;;;7343528;19;110606;-89
2023/01/13 00:27:44;;;;;;;;;;;11.20;99.90;;;;;;7345397;19;109548;-90
2023/01/13 00:30:11;;;;;;;;;;;11.20;99.90;;;;;;7345409;19;108295;-89
2023/01/13 00:32:39;;;;;;;;;;;11.10;99.90;;;;;;7342532;19;112583;-89
2023/01/13 00:35:06;;;;;;;;;;;11.10;99.90;;;;;;7345721;19;108936;-89
2023/01/13 00:37:37;;;;;;;;;;;11.10;99.90;;;;;;7343598;19;109407;-90
2023/01/13 00:40:04;;;;;;;;;;;11.10;99.90;;;;;;7341766;19;110351;-90
2023/01/13 00:45:17;;;;;;;;;;;11.10;99.90;;;;;;7345338;19;111930;-90
2023/01/13 00:47:44;;;;;;;;;;;11.00;99.90;;;;;;7344745;19;108295;-90
2023/01/13 00:50:11;;;;;;;;;;;11.00;99.90;;;;;;7344460;19;111688;-90
2023/01/13 00:52:38;;;;;;;;;;;11.00;99.90;;;;;;7342655;19;113477;-90
2023/01/13 00:55:07;;;;;;;;;;;11.00;99.90;;;;;;7344840;19;109376;-91
2023/01/13 00:57:34;;;;;;;;;;;11.00;99.90;;;;;;7343838;19;112632;-90
2023/01/13 01:00:02;;;;;;;;;;;11.00;99.90;;;;;;7343673;19;108808;-90
2023/01/13 01:02:29;;;;;;;;;;;10.90;99.90;;;;;;7346128;19;109153;-90
2023/01/13 01:04:56;;;;;;;;;;;10.80;99.90;;;;;;7352231;19;111517;-91
2023/01/13 01:07:23;;;;;;;;;;;10.90;99.90;;;;;;7343895;19;108446;-90
2023/01/13 01:09:50;;;;;;;;;;;10.80;99.90;;;;;;7344323;19;108645;-90
2023/01/13 01:12:17;;;;;;;;;;;10.80;99.90;;;;;;7343486;19;109082;-90
2023/01/13 01:14:44;;;;;;;;;;;10.70;99.90;;;;;;7345135;19;111255;-90
2023/01/13 01:17:11;;;;;;;;;;;10.60;99.90;;;;;;7345690;19;109344;-90
2023/01/13 01:19:38;;;;;;;;;;;10.60;99.90;;;;;;7342505;19;109826;-90
2023/01/13 01:22:05;;;;;;;;;;;10.60;99.90;;;;;;7345289;19;108510;-89
2023/01/13 01:24:32;;;;;;;;;;;10.60;99.90;;;;;;7342066;19;111011;-90
2023/01/13 01:26:59;;;;;;;;;;;10.60;99.90;;;;;;7347306;19;110344;-91
2023/01/13 01:29:26;;;;;;;;;;;10.50;99.90;;;;;;7341489;19;111732;-90
2023/01/13 01:31:53;;;;;;;;;;;10.50;99.90;;;;;;7343099;19;110668;-90
2023/01/13 01:34:20;;;;;;;;;;;10.50;99.90;;;;;;7341676;19;108392;-90
2023/01/13 01:36:46;;;;;;;;;;;10.50;99.90;;;;;;7344376;19;108879;-89
2023/01/13 01:39:14;;;;;;;;;;;10.50;99.90;;;;;;7342498;19;108981;-88
2023/01/13 01:43:57;;;;;;;;;;;10.50;99.90;;;;;;7343835;19;108965;-90
2023/01/13 01:44:47;;;;;;;;;;;10.50;99.90;;;;;;7343517;19;112578;-89
2023/01/13 01:47:17;;;;;;;;;;;10.50;99.90;;;;;;7341447;19;112800;-90
2023/01/13 01:49:44;;;;;;;;;;;10.50;99.90;;;;;;7350415;19;108475;-89
2023/01/13 01:52:31;;;;;;;;;;;10.40;99.90;;;;;;7348923;19;110353;-90
2023/01/13 01:55:05;;;;;;;;;;;10.40;99.90;;;;;;7351114;19;108558;-91
2023/01/13 01:57:37;;;;;;;;;;;10.40;99.90;;;;;;7349789;19;109171;-90
2023/01/13 02:00:04;;;;;;;;;;;10.30;99.90;;;;;;7348222;19;110560;-88
2023/01/13 02:02:31;;;;;;;;;;;10.30;99.90;;;;;;7347252;19;109222;-89
2023/01/13 02:04:58;;;;;;;;;;;10.30;99.90;;;;;;7349887;19;109755;-89
2023/01/13 02:07:27;;;;;;;;;;;10.30;99.90;;;;;;7349107;19;112896;-89
2023/01/13 02:09:55;;;;;;;;;;;10.30;99.90;;;;;;7350436;19;108832;-90
2023/01/13 02:12:28;;;;;;;;;;;10.40;99.90;;;;;;7355099;19;110917;-90
2023/01/13 02:14:57;;;;;;;;;;;10.30;99.90;;;;;;7351507;19;108765;-91
2023/01/13 02:17:32;;;;;;;;;;;10.30;99.90;;;;;;7350422;19;112625;-89
2023/01/13 02:19:59;;;;;;;;;;;10.30;99.90;;;;;;7347011;19;113119;-90
2023/01/13 02:22:52;;;;;;;;;;;10.30;99.90;;;;;;7345729;19;108875;-90
2023/01/13 02:25:19;;;;;;;;;;;10.30;99.90;;;;;;7348795;19;109488;-90
2023/01/13 02:27:59;;;;;;;;;;;10.40;99.90;;;;;;7349673;19;109099;-90
2023/01/13 02:33:36;;;;;;;;;;;10.40;99.90;;;;;;7355214;19;110614;-90
2023/01/13 02:36:07;;;;;;;;;;;10.30;99.90;;;;;;7348087;19;109636;-91
2023/01/13 02:38:36;;;;;;;;;;;10.40;99.90;;;;;;7347258;19;112048;-91
2023/01/13 02:44:07;;;;;;;;;;;10.40;99.90;;;;;;7350237;19;108293;-90
2023/01/13 02:46:36;;;;;;;;;;;10.40;99.90;;;;;;7347898;19;109439;-90
2023/01/13 02:49:06;;;;;;;;;;;10.50;99.90;;;;;;7348462;19;110901;-90
2023/01/13 02:51:33;;;;;;;;;;;10.40;99.90;;;;;;7346730;19;108452;-90
2023/01/13 02:54:04;;;;;;;;;;;10.40;99.90;;;;;;7347814;19;110948;-90
2023/01/13 02:56:33;;;;;;;;;;;10.40;99.90;;;;;;7351983;19;113013;-90
2023/01/13 02:59:00;;;;;;;;;;;10.40;99.90;;;;;;7350204;19;109642;-91
2023/01/13 03:01:27;;;;;;;;;;;10.50;99.90;;;;;;7343727;19;113129;-90
2023/01/13 03:03:54;;;;;;;;;;;10.50;99.90;;;;;;7350065;19;108513;-89
2023/01/13 03:06:33;;;;;;;;;;;10.60;99.90;;;;;;7347918;19;110860;-91
2023/01/13 03:09:21;;;;;;;;;;;10.60;99.90;;;;;;7347851;19;108482;-89
2023/01/13 03:12:00;;;;;;;;;;;10.50;99.90;;;;;;7346673;19;108389;-90
2023/01/13 03:14:30;;;;;;;;;;;10.50;99.90;;;;;;7346675;19;112328;-90
2023/01/13 03:17:12;;;;;;;;;;;10.50;99.90;;;;;;7349267;19;109400;-90
2023/01/13 03:19:54;;;;;;;;;;;10.40;99.90;;;;;;7354262;19;109190;-90
2023/01/13 03:22:31;;;;;;;;;;;10.40;99.90;;;;;;7349639;19;113824;-90
2023/01/13 03:24:58;;;;;;;;;;;10.40;99.90;;;;;;7346934;19;108995;-90
2023/01/13 03:27:28;;;;;;;;;;;10.30;99.90;;;;;;7345694;19;111791;-90
2023/01/13 03:30:00;;;;;;;;;;;10.40;99.90;;;;;;7349102;19;110382;-90
2023/01/13 03:32:30;;;;;;;;;;;10.30;99.90;;;;;;7345332;19;108399;-90
2023/01/13 03:35:14;;;;;;;;;;;10.30;99.90;;;;;;7345866;19;111865;-90
2023/01/13 03:37:44;;;;;;;;;;;10.30;99.90;;;;;;7344552;19;111729;-88
2023/01/13 03:40:17;;;;;;;;;;;10.30;99.90;;;;;;7346509;19;108866;-91
2023/01/13 03:44:20;;;;;;;;;;;10.30;99.90;;;;;;7352353;19;109288;-91
2023/01/13 03:45:34;;;;;;;;;;;10.30;99.90;;;;;;7346632;19;108410;-91
2023/01/13 03:48:04;;;;;;;;;;;10.30;99.90;;;;;;7345732;19;109172;-90
2023/01/13 03:50:34;;;;;;;;;;;10.30;99.90;;;;;;7343127;19;113430;-89
2023/01/13 03:53:03;;;;;;;;;;;10.30;99.90;;;;;;7344795;19;108838;-89
2023/01/13 03:55:32;;;;;;;;;;;10.20;99.90;;;;;;7345135;19;110535;-90
2023/01/13 03:58:13;;;;;;;;;;;10.30;99.90;;;;;;7344172;19;109284;-90
2023/01/13 04:00:43;;;;;;;;;;;10.30;99.90;;;;;;7337182;19;108776;-87
2023/01/13 04:03:12;;;;;;;;;;;10.20;99.90;;;;;;7336536;19;110406;-86
2023/01/13 04:05:41;;;;;;;;;;;10.10;99.90;;;;;;7341677;19;114343;-85
2023/01/13 04:08:15;;;;;;;;;;;10.10;99.90;;;;;;7337057;19;110003;-86
2023/01/13 04:11:05;;;;;;;;;;;10.00;99.90;;;;;;7339866;19;110948;-86
2023/01/13 04:13:35;;;;;;;;;;;10.00;99.90;;;;;;7337608;19;108920;-87
2023/01/13 04:16:04;;;;;;;;;;;10.00;99.90;;;;;;7340865;19;112088;-86
2023/01/13 04:18:31;;;;;;;;;;;10.00;99.90;;;;;;7337281;19;112646;-86
2023/01/13 04:20:59;;;;;;;;;;;9.90;99.90;;;;;;7343166;19;108435;-85
2023/01/13 04:23:27;;;;;;;;;;;9.90;99.90;;;;;;7337724;19;109604;-87
2023/01/13 04:25:54;;;;;;;;;;;9.90;99.90;;;;;;7338643;19;112377;-87
2023/01/13 04:28:21;;;;;;;;;;;9.90;99.90;;;;;;7345807;19;108669;-86
2023/01/13 04:30:48;;;;;;;;;;;9.90;99.90;;;;;;7339220;19;109959;-87
2023/01/13 04:33:17;;;;;;;;;;;9.90;99.90;;;;;;7340257;19;108899;-87
2023/01/13 04:35:44;;;;;;;;;;;9.90;99.90;;;;;;7340017;19;112330;-87
2023/01/13 04:38:16;;;;;;;;;;;9.80;99.90;;;;;;7338550;19;110619;-86
2023/01/13 04:40:43;;;;;;;;;;;9.80;99.90;;;;;;7338532;19;108824;-85
2023/01/13 04:43:11;;;;;;;;;;;9.80;99.90;;;;;;7342363;19;109044;-86
2023/01/13 04:45:38;;;;;;;;;;;9.80;99.90;;;;;;7337901;19;110212;-86
2023/01/13 04:48:04;;;;;;;;;;;9.80;99.90;;;;;;7346837;19;108967;-86
2023/01/13 04:50:32;;;;;;;;;;;9.80;99.90;;;;;;7338722;19;110409;-87
2023/01/13 04:53:00;;;;;;;;;;;9.80;99.90;;;;;;7340196;19;109121;-86
2023/01/13 04:55:28;;;;;;;;;;;9.80;99.90;;;;;;7339759;19;109652;-86
2023/01/13 04:57:59;;;;;;;;;;;9.70;99.90;;;;;;7339245;19;113457;-87
2023/01/13 05:00:26;;;;;;;;;;;9.70;99.90;;;;;;7337850;19;108601;-86
2023/01/13 05:02:53;;;;;;;;;;;9.70;99.90;;;;;;7338753;19;108659;-86
2023/01/13 05:05:20;;;;;;;;;;;9.60;99.90;;;;;;7339435;19;110563;-86
2023/01/13 05:07:47;;;;;;;;;;;9.70;99.90;;;;;;7338820;19;108389;-86
2023/01/13 05:10:14;;;;;;;;;;;9.60;99.90;;;;;;7342028;19;112960;-88
2023/01/13 05:18:12;;;;;;;;;;;9.60;99.90;;;;;;7339377;19;111229;-87
2023/01/13 05:20:39;;;;;;;;;;;9.60;99.90;;;;;;7339857;19;108902;-87
2023/01/13 05:25:52;;;;;;;;;;;9.60;99.90;;;;;;7336346;19;114212;-87
2023/01/13 05:28:19;;;;;;;;;;;9.60;99.90;;;;;;7337021;19;108632;-87
2023/01/13 05:30:47;;;;;;;;;;;9.70;99.90;;;;;;7336590;19;109298;-87
2023/01/13 05:33:16;;;;;;;;;;;9.70;99.90;;;;;;7342022;19;110045;-87
2023/01/13 05:35:44;;;;;;;;;;;9.70;99.90;;;;;;7340492;19;109604;-87
2023/01/13 05:38:11;;;;;;;;;;;9.70;99.90;;;;;;7339454;19;113461;-87
2023/01/13 05:43:25;;;;;;;;;;;9.60;99.90;;;;;;7338746;19;109867;-87
2023/01/13 05:45:57;;;;;;;;;;;9.60;99.90;;;;;;7337040;19;110604;-87
2023/01/13 05:48:34;;;;;;;;;;;9.60;99.90;;;;;;7338188;19;108682;-86
2023/01/13 05:51:02;;;;;;;;;;;9.60;99.90;;;;;;7338666;19;109936;-87
2023/01/13 05:53:29;;;;;;;;;;;9.60;99.90;;;;;;7335002;19;109248;-86
2023/01/13 05:55:56;;;;;;;;;;;9.60;99.90;;;;;;7339866;19;108500;-87
2023/01/13 05:58:24;;;;;;;;;;;9.60;99.90;;;;;;7334451;19;113999;-86
2023/01/13 06:00:51;;;;;;;;;;;9.50;99.90;;;;;;7338093;19;109453;-86
2023/01/13 06:03:21;;;;;;;;;;;9.50;99.90;;;;;;7336245;19;109675;-87
2023/01/13 06:05:50;;;;;;;;;;;9.50;99.90;;;;;;7335455;19;110150;-87
2023/01/13 06:08:17;;;;;;;;;;;9.50;99.90;;;;;;7334029;19;109042;-86
2023/01/13 06:10:44;;;;;;;;;;;9.50;99.90;;;;;;7337253;19;109863;-86
2023/01/13 06:13:11;;;;;;;;;;;9.50;99.90;;;;;;7335235;19;110480;-87
2023/01/13 06:15:38;;;;;;;;;;;9.40;99.90;;;;;;7336534;19;109192;-87
2023/01/13 06:18:05;;;;;;;;;;;9.50;99.90;;;;;;7343708;19;112854;-87
2023/01/13 06:20:32;;;;;;;;;;;9.40;99.90;;;;;;7335647;19;108931;-87
2023/01/13 06:23:00;;;;;;;;;;;9.40;99.90;;;;;;7334983;19;112187;-88
2023/01/13 06:25:33;;;;;;;;;;;9.40;99.90;;;;;;7331367;19;110864;-87
2023/01/13 06:28:00;;;;;;;;;;;9.40;99.90;;;;;;7333326;19;108953;-87
2023/01/13 06:30:29;;;;;;;;;;;9.40;99.90;;;;;;7333708;19;110746;-87
2023/01/13 06:32:57;;;;;;;;;;;9.40;99.90;;;;;;7330187;19;109187;-87
2023/01/13 06:35:27;;;;;;;;;;;9.40;99.90;;;;;;7335279;19;108651;-87
2023/01/13 06:37:55;;;;;;;;;;;9.40;99.90;;;;;;7343610;19;110453;-88
2023/01/13 06:40:22;;;;;;;;;;;9.40;99.90;;;;;;7349531;19;109968;-87
2023/01/13 06:45:35;;;;;;;;;;;9.40;99.90;;;;;;7340696;19;109557;-88
2023/01/13 06:48:02;;;;;;;;;;;9.40;99.90;;;;;;7345383;19;109186;-87
2023/01/13 06:50:29;;;;;;;;;;;9.40;99.90;;;;;;7341906;19;109180;-86
2023/01/13 06:52:56;;;;;;;;;;;9.40;99.90;;;;;;7342279;19;110100;-87
2023/01/13 06:55:23;;;;;;;;;;;9.40;99.90;;;;;;7342010;19;108942;-86
2023/01/13 06:57:51;;;;;;;;;;;9.40;99.90;;;;;;7343542;19;109320;-87
2023/01/13 07:00:19;;;;;;;;;;;9.40;99.90;;;;;;7347155;19;109025;-87
2023/01/13 07:02:46;;;;;;;;;;;9.40;99.90;;;;;;7341607;19;109479;-87
2023/01/13 07:05:13;;;;;;;;;;;9.30;99.90;;;;;;7340794;19;111820;-87
2023/01/13 07:07:41;;;;;;;;;;;9.30;99.90;;;;;;7342964;19;109249;-86
2023/01/13 07:10:10;;;;;;;;;;;9.30;99.90;;;;;;7342348;19;108840;-86
2023/01/13 07:15:22;;;;;;;;;;;9.30;99.90;;;;;;7345149;19;108738;-86
2023/01/13 07:17:50;;;;;;;;;;;9.30;99.90;;;;;;7346347;19;109612;-86
2023/01/13 07:20:17;;;;;;;;;;;9.30;99.90;;;;;;7343859;19;110457;-85
2023/01/13 07:22:44;;;;;;;;;;;9.20;99.90;;;;;;7351574;19;108582;-85
2023/01/13 07:25:11;;;;;;;;;;;9.30;99.90;;;;;;7347734;19;110121;-87
2023/01/13 07:27:38;;;;;;;;;;;9.20;99.90;;;;;;7343733;19;108948;-87
2023/01/13 07:30:06;;;;;;;;;;;9.30;99.90;;;;;;7346161;19;108863;-86
2023/01/13 07:32:33;;;;;;;;;;;9.30;99.90;;;;;;7344312;19;110325;-87
2023/01/13 07:35:04;;;;;;;;;;;9.30;99.90;;;;;;7346536;19;108567;-87
2023/01/13 07:37:32;;;;;;;;;;;9.30;99.90;;;;;;7346683;19;109124;-86
2023/01/13 07:39:59;;;;;;;;;;;9.30;99.90;;;;;;7343484;19;110379;-87
2023/01/13 07:45:12;;;;;;;;;;;9.30;99.90;;;;;;7349739;19;109517;-86
2023/01/13 07:47:42;;;;;;;;;;;9.20;99.90;;;;;;7338878;19;108571;-87
2023/01/13 07:50:09;;;;;;;;;;;9.20;99.90;;;;;;7341713;19;111807;-88
2023/01/13 07:52:36;;;;;;;;;;;9.20;99.90;;;;;;7342041;19;110440;-86
2023/01/13 07:55:03;;;;;;;;;;;9.20;99.90;;;;;;7342214;19;108773;-87
2023/01/13 07:57:29;;;;;;;;;;;9.30;99.90;;;;;;7340836;19;109774;-87
2023/01/13 07:59:56;;;;;;;;;;;9.30;99.90;;;;;;7341310;19;110644;-87
2023/01/13 08:02:23;;;;;;;;;;;9.30;99.90;;;;;;7342342;19;108675;-86
2023/01/13 08:04:51;;;;;;;;;;;9.30;99.90;;;;;;7341357;19;109424;-86
2023/01/13 08:07:17;;;;;;;;;;;9.30;99.90;;;;;;7346046;19;110376;-87
2023/01/13 08:09:44;;;;;;;;;;;9.30;99.90;;;;;;7341781;19;109500;-87
2023/01/13 08:14:57;;;;;;;;;;;9.30;99.90;;;;;;7341567;19;108838;-86
2023/01/13 08:17:24;;;;;;;;;;;9.30;99.90;;;;;;7338320;19;112303;-87
2023/01/13 08:19:51;;;;;;;;;;;9.40;99.90;;;;;;7341077;19;110580;-87
2023/01/13 08:22:18;;;;;;;;;;;9.40;99.90;;;;;;7338418;19;108401;-86
2023/01/13 08:24:45;;;;;;;;;;;9.50;99.90;;;;;;7342242;19;109827;-87
2023/01/13 08:27:12;;;;;;;;;;;9.40;99.90;;;;;;7338479;19;109550;-88
2023/01/13 08:29:39;;;;;;;;;;;9.50;99.90;;;;;;7344397;19;108610;-88
2023/01/13 08:32:06;;;;;;;;;;;9.50;99.90;;;;;;7340057;19;109610;-88
2023/01/13 08:34:34;;;;;;;;;;;9.50;99.90;;;;;;7339554;19;109067;-87
2023/01/13 08:37:01;;;;;;;;;;;9.60;99.90;;;;;;7340316;19;108889;-87
2023/01/13 08:39:28;;;;;;;;;;;9.60;99.90;;;;;;7339989;19;112122;-87
2023/01/13 08:41:55;;;;;;;;;;;9.60;99.90;;;;;;7338336;19;108776;-87
2023/01/13 08:44:23;;;;;;;;;;;9.60;99.90;;;;;;7339055;19;111879;-85
2023/01/13 08:46:50;;;;;;;;;;;9.70;99.90;;;;;;7337119;19;108815;-87
2023/01/13 08:49:17;;;;;;;;;;;9.70;99.90;;;;;;7338740;19;109247;-87
2023/01/13 08:51:44;;;;;;;;;;;9.80;99.90;;;;;;7344654;19;109703;-87
2023/01/13 08:54:11;;;;;;;;;;;9.80;99.90;;;;;;7341206;19;108478;-86
2023/01/13 08:56:39;;;;;;;;;;;9.90;99.90;;;;;;7336947;19;108871;-87
2023/01/13 08:59:08;;;;;;;;;;;9.90;99.90;;;;;;7336063;19;110522;-85
2023/01/13 09:01:38;;;;;;;;;;;10.00;99.90;;;;;;7337325;19;108519;-85
2023/01/13 09:04:06;;;;;;;;;;;10.00;99.90;;;;;;7339502;19;111909;-87
2023/01/13 09:06:33;;;;;;;;;;;10.10;99.90;;;;;;7339290;19;109898;-87
2023/01/13 09:09:01;;;;;;;;;;;10.10;99.90;;;;;;7341465;19;108537;-89
2023/01/13 09:14:16;;;;;;;;;;;10.00;99.90;;;;;;7342015;19;108924;-87
2023/01/13 09:16:43;;;;;;;;;;;10.10;99.90;;;;;;7338904;19;109643;-88
2023/01/13 09:19:11;;;;;;;;;;;10.10;99.90;;;;;;7340354;19;109685;-87
2023/01/13 09:21:38;;;;;;;;;;;10.10;99.90;;;;;;7337564;19;108915;-87
2023/01/13 09:24:05;;;;;;;;;;;10.10;99.90;;;;;;7338489;19;112294;-88
2023/01/13 09:26:32;;;;;;;;;;;10.00;99.90;;;;;;7335250;19;111014;-87
2023/01/13 09:28:59;;;;;;;;;;;10.00;99.90;;;;;;7341124;19;112652;-87
2023/01/13 09:31:27;;;;;;;;;;;10.00;99.90;;;;;;7337198;19;110554;-87
2023/01/13 09:36:40;;;;;;;;;;;10.00;99.90;;;;;;7339486;19;111129;-88
2023/01/13 09:39:06;;;;;;;;;;;10.10;99.90;;;;;;7336500;19;113170;-87
2023/01/13 09:44:28;;;;;;;;;;;10.10;99.90;;;;;;7339642;19;108860;-88
2023/01/13 09:46:59;;;;;;;;;;;10.20;99.90;;;;;;7337150;19;113490;-88
2023/01/13 09:49:40;;;;;;;;;;;10.30;99.90;;;;;;7339486;19;108817;-88
2023/01/13 09:52:15;;;;;;;;;;;10.30;99.90;;;;;;7337812;19;108849;-87
2023/01/13 09:54:43;;;;;;;;;;;10.40;99.90;;;;;;7340300;19;110402;-87
2023/01/13 09:57:11;;;;;;;;;;;10.40;99.90;;;;;;7342600;19;108477;-89
2023/01/13 09:59:38;;;;;;;;;;;10.30;99.90;;;;;;7336868;19;110468;-89
2023/01/13 10:02:11;;;;;;;;;;;10.40;99.90;;;;;;7338056;19;108519;-87
2023/01/13 10:04:38;;;;;;;;;;;10.40;99.90;;;;;;7336599;19;109307;-88
2023/01/13 10:07:10;;;;;;;;;;;10.40;99.90;;;;;;7335454;19;113602;-87
2023/01/13 10:09:48;;;;;;;;;;;10.40;99.90;;;;;;7337443;19;108487;-88
2023/01/13 10:15:02;;;;;;;;;;;10.40;99.90;;;;;;7344901;19;113449;-90
2023/01/13 10:17:29;;;;;;;;;;;10.40;99.90;;;;;;7342416;19;108439;-88
2023/01/13 10:20:11;;;;;;;;;;;10.40;99.90;;;;;;7349175;19;109793;-88
2023/01/13 10:22:57;;;;;;;;;;;10.50;99.90;;;;;;7345657;19;108704;-89
2023/01/13 10:25:39;;;;;;;;;;;10.50;99.90;;;;;;7344694;19;111668;-89
2023/01/13 10:28:11;;;;;;;;;;;10.60;99.90;;;;;;7344688;19;109133;-89
2023/01/13 10:30:40;;;;;;;;;;;10.60;99.90;;;;;;7344519;19;108506;-87
2023/01/13 10:33:11;;;;;;;;;;;10.60;99.90;;;;;;7345825;19;109449;-88
2023/01/13 10:35:57;;;;;;;;;;;10.60;99.90;;;;;;7343622;19;109049;-88
2023/01/13 10:38:27;;;;;;;;;;;10.70;99.90;;;;;;7345433;19;108535;-88
2023/01/13 10:40:56;;;;;;;;;;;10.70;99.90;;;;;;7345356;19;114598;-88
2023/01/13 10:43:23;;;;;;;;;;;10.60;99.90;;;;;;7348641;19;110449;-88
2023/01/13 10:45:58;;;;;;;;;;;10.60;99.90;;;;;;7342550;19;112193;-88
2023/01/13 10:49:01;;;;;;;;;;;10.50;99.90;;;;;;7342003;19;109873;-88
2023/01/13 10:51:36;;;;;;;;;;;10.50;99.90;;;;;;7341320;19;108893;-88
2023/01/13 10:54:06;;;;;;;;;;;10.50;99.90;;;;;;7342042;19;110043;-89
2023/01/13 10:56:33;;;;;;;;;;;10.40;99.90;;;;;;7336954;19;112993;-87
2023/01/13 10:59:21;;;;;;;;;;;10.40;99.90;;;;;;7339795;19;108737;-88
2023/01/13 11:01:56;;;;;;;;;;;10.40;99.90;;;;;;7338121;19;109607;-87
2023/01/13 11:04:29;;;;;;;;;;;10.40;99.90;;;;;;7336255;19;111330;-87
2023/01/13 11:06:57;;;;;;;;;;;10.30;99.90;;;;;;7342205;19;108628;-87
2023/01/13 11:09:25;;;;;;;;;;;10.30;99.90;;;;;;7335801;19;111198;-88
2023/01/13 11:11:55;;;;;;;;;;;10.30;99.90;;;;;;7338538;19;109784;-88
2023/01/13 11:14:40;;;;;;;;;;;10.20;99.90;;;;;;7337673;19;108248;-88
2023/01/13 11:17:13;;;;;;;;;;;10.20;99.90;;;;;;7338901;19;113602;-88
2023/01/13 11:19:42;;;;;;;;;;;10.20;99.90;;;;;;7341514;19;108663;-88
2023/01/13 11:22:16;;;;;;;;;;;10.10;99.90;;;;;;7337106;19;109295;-87
2023/01/13 11:24:57;;;;;;;;;;;10.10;99.90;;;;;;7338034;19;110164;-87
2023/01/13 11:27:43;;;;;;;;;;;10.20;99.90;;;;;;7345081;19;109479;-87
2023/01/13 11:30:16;;;;;;;;;;;10.30;99.90;;;;;;7339018;19;110599;-86
2023/01/13 11:32:52;;;;;;;;;;;10.30;99.90;;;;;;7342343;19;108778;-86
2023/01/13 11:35:20;;;;;;;;;;;10.30;99.90;;;;;;7339415;19;109530;-87
2023/01/13 11:37:53;;;;;;;;;;;10.40;99.90;;;;;;7339850;19;112875;-87
2023/01/13 11:40:24;;;;;;;;;;;10.40;99.90;;;;;;7339371;19;108612;-88
2023/01/13 11:42:54;;;;;;;;;;;10.40;99.90;;;;;;7342547;19;112375;-88
2023/01/13 11:45:33;;;;;;;;;;;10.30;99.90;;;;;;7341234;19;112877;-89
2023/01/13 11:48:01;;;;;;;;;;;10.30;99.90;;;;;;7343063;19;108816;-88
2023/01/13 11:50:33;;;;;;;;;;;10.50;99.90;;;;;;7345327;19;109853;-88
2023/01/13 11:53:14;;;;;;;;;;;10.50;99.90;;;;;;7340188;19;108532;-88
2023/01/13 11:55:41;;;;;;;;;;;10.50;99.90;;;;;;7342820;19;109676;-89
2023/01/13 11:58:19;;;;;;;;;;;10.50;99.90;;;;;;7342757;19;110257;-88
2023/01/13 12:00:46;;;;;;;;;;;10.50;99.90;;;;;;7342043;19;108514;-88
2023/01/13 12:03:22;;;;;;;;;;;10.50;99.90;;;;;;7340995;19;108818;-88
2023/01/13 12:06:08;;;;;;;;;;;10.50;99.90;;;;;;7340491;19;112937;-89
2023/01/13 12:08:35;;;;;;;;;;;10.50;99.90;;;;;;7342304;19;108655;-89
2023/01/13 12:11:01;;;;;;;;;;;10.60;99.90;;;;;;7341879;19;110570;-89
2023/01/13 12:13:43;;;;;;;;;;;10.60;99.90;;;;;;7345709;19;112936;-87
2023/01/13 12:16:19;;;;;;;;;;;10.60;99.90;;;;;;7340981;19;108847;-87
2023/01/13 12:18:46;;;;;;;;;;;10.60;99.90;;;;;;7341040;19;109908;-89
2023/01/13 12:21:18;;;;;;;;;;;10.50;99.90;;;;;;7341696;19;108726;-87
2023/01/13 12:23:57;;;;;;;;;;;10.60;99.90;;;;;;7338708;19;111922;-86
2023/01/13 12:26:25;;;;;;;;;;;10.50;99.90;;;;;;7339003;19;113839;-87
2023/01/13 12:29:06;;;;;;;;;;;10.60;99.90;;;;;;7341209;19;108921;-88
2023/01/13 12:31:35;;;;;;;;;;;10.60;99.90;;;;;;7340860;19;108858;-88
2023/01/13 12:34:02;;;;;;;;;;;10.60;99.90;;;;;;7341541;19;109441;-88
2023/01/13 12:36:48;;;;;;;;;;;10.60;99.90;;;;;;7344227;19;108733;-89
2023/01/13 12:39:18;;;;;;;;;;;10.60;99.90;;;;;;7339049;19;110137;-88
2023/01/13 12:44:58;;;;;;;;;;;10.80;99.90;;;;;;7343024;19;112790;-88
2023/01/13 12:47:42;;;;;;;;;;;10.80;99.90;;;;;;7340251;19;110514;-89
2023/01/13 12:50:22;;;;;;;;;;;10.80;99.90;;;;;;7339425;19;108491;-87
2023/01/13 12:52:50;;;;;;;;;;;10.80;99.90;;;;;;7340753;19;109176;-88
2023/01/13 12:55:21;;;;;;;;;;;10.80;99.90;;;;;;7338647;19;109214;-86
2023/01/13 12:57:54;;;;;;;;;;;11.00;99.90;;;;;;7339534;19;108653;-89
2023/01/13 13:00:21;;;;;;;;;;;11.00;99.90;;;;;;7343698;19;109313;-88
2023/01/13 13:03:10;;;;;;;;;;;10.90;99.90;;;;;;7340078;19;108440;-89
2023/01/13 13:05:46;;;;;;;;;;;10.90;99.90;;;;;;7340612;19;109329;-89
2023/01/13 13:08:19;;;;;;;;;;;10.80;99.90;;;;;;7342810;19;110614;-87
2023/01/13 13:11:04;;;;;;;;;;;11.00;99.90;;;;;;7340775;19;108372;-88
2023/01/13 13:13:45;;;;;;;;;;;10.90;99.90;;;;;;7340333;19;109566;-88
2023/01/13 13:16:35;;;;;;;;;;;10.90;99.90;;;;;;7339721;19;110139;-88
2023/01/13 13:19:18;;;;;;;;;;;10.80;99.90;;;;;;7338155;19;108894;-87
2023/01/13 13:22:03;;;;;;;;;;;10.80;99.90;;;;;;7346578;19;111686;-88
2023/01/13 13:24:30;;;;;;;;;;;10.70;99.90;;;;;;7337606;19;108865;-88
2023/01/13 13:27:14;;;;;;;;;;;10.80;99.90;;;;;;7339887;19;111045;-88
2023/01/13 13:29:46;;;;;;;;;;;10.80;99.90;;;;;;7341351;19;111439;-89
2023/01/13 13:32:26;;;;;;;;;;;10.80;99.90;;;;;;7339369;19;108180;-87
2023/01/13 13:35:11;;;;;;;;;;;10.70;99.90;;;;;;7338154;19;110591;-88
2023/01/13 13:49:07;;;;;;;;;;;10.70;99.90;;;;;;7347259;19;109634;-88
2023/01/13 13:51:38;;;;;;;;;;;10.70;99.90;;;;;;7342632;19;113210;-88
2023/01/13 13:54:08;;;;;;;;;;;10.70;99.90;;;;;;7346800;19;108537;-86
2023/01/13 13:56:38;;;;;;;;;;;10.70;99.90;;;;;;7347811;19;109559;-86
2023/01/13 13:59:08;;;;;;;;;;;10.70;99.90;;;;;;7344865;19;110035;-87
2023/01/13 14:01:36;;;;;;;;;;;10.60;99.90;;;;;;7342209;19;109475;-86
2023/01/13 14:04:06;;;;;;;;;;;10.70;99.90;;;;;;7345760;19;108797;-86
2023/01/13 14:06:33;;;;;;;;;;;10.70;99.90;;;;;;7342156;19;110753;-86
2023/01/13 14:09:01;;;;;;;;;;;10.60;99.90;;;;;;7348953;19;108644;-85
2023/01/13 14:11:30;;;;;;;;;;;10.60;99.90;;;;;;7343404;19;110823;-85
2023/01/13 14:14:01;;;;;;;;;;;10.70;99.90;;;;;;7343661;19;109201;-86
2023/01/13 14:16:28;;;;;;;;;;;10.70;99.90;;;;;;7343516;19;108875;-86
2023/01/13 14:18:59;;;;;;;;;;;10.70;99.90;;;;;;7341772;19;111581;-86
2023/01/13 14:21:27;;;;;;;;;;;10.60;99.90;;;;;;7345698;19;108453;-85
2023/01/13 14:23:59;;;;;;;;;;;10.60;99.90;;;;;;7342626;19;109649;-86
2023/01/13 14:26:27;;;;;;;;;;;10.60;99.90;;;;;;7343072;19;111265;-86
2023/01/13 14:28:55;;;;;;;;;;;10.70;99.90;;;;;;7341496;19;108500;-86
2023/01/13 14:31:23;;;;;;;;;;;10.60;99.90;;;;;;7348435;19;108968;-86
2023/01/13 14:33:54;;;;;;;;;;;10.70;99.90;;;;;;7341936;19;109087;-86
2023/01/13 14:36:23;;;;;;;;;;;10.60;99.90;;;;;;7340481;19;110084;-86
2023/01/13 14:39:02;;;;;;;;;;;10.60;99.90;;;;;;7340852;19;110751;-86
2023/01/13 14:41:41;;;;;;;;;;;10.60;99.90;;;;;;7339210;19;108819;-85
2023/01/13 14:44:15;;;;;;;;;;;10.60;99.90;;;;;;7341631;19;108949;-87
2023/01/13 14:46:43;;;;;;;;;;;10.60;99.90;;;;;;7339169;19;111766;-86
2023/01/13 14:49:16;;;;;;;;;;;10.60;99.90;;;;;;7343456;19;108868;-87
2023/01/13 14:51:43;;;;;;;;;;;10.60;99.90;;;;;;7340929;19;111216;-86
2023/01/13 14:54:28;;;;;;;;;;;10.60;99.90;;;;;;7343742;19;110139;-87
2023/01/13 14:57:14;;;;;;;;;;;10.60;99.90;;;;;;7341040;19;110006;-85
2023/01/13 15:00:07;;;;;;;;;;;10.50;99.90;;;;;;7340072;19;109733;-87
2023/01/13 15:02:36;;;;;;;;;;;10.50;99.90;;;;;;7339884;19;110944;-85
2023/01/13 15:05:18;;;;;;;;;;;10.50;99.90;;;;;;7342492;19;109638;-85
2023/01/13 15:07:50;;;;;;;;;;;10.40;99.90;;;;;;7341103;19;114202;-86
2023/01/13 15:10:23;;;;;;;;;;;10.60;99.90;;;;;;7341295;19;108522;-87
2023/01/13 15:12:51;;;;;;;;;;;10.50;99.90;;;;;;7341079;19;109709;-85
2023/01/13 15:15:23;;;;;;;;;;;10.50;99.90;;;;;;7338673;19;109653;-87
2023/01/13 15:17:52;;;;;;;;;;;10.40;99.90;;;;;;7345083;19;108946;-87
2023/01/13 15:20:20;;;;;;;;;;;10.40;99.90;;;;;;7338310;19;113068;-86
2023/01/13 15:22:47;;;;;;;;;;;10.40;99.90;;;;;;7341856;19;108735;-86
2023/01/13 15:25:14;;;;;;;;;;;10.50;99.90;;;;;;7340035;19;113326;-87